createdAt,value
2019-04-22T00:02:00.622Z,10.63
2019-04-22T00:04:42.354Z,10.37
2019-04-22T00:07:24.949Z,10.77
2019-04-22T00:09:59.813Z,10.97
2019-04-22T00:12:27.932Z,10.50
2019-04-22T00:14:55.086Z,10.00
2019-04-22T00:17:48.574Z,10.50
2019-04-22T00:20:04.400Z,10.33
2019-04-22T00:22:34.604Z,9.73
2019-04-22T00:25:10.589Z,10.70
2019-04-22T00:30:12.997Z,9.70
2019-04-22T00:32:36.975Z,10.27
2019-04-22T00:35:14.751Z,10.20
2019-04-22T00:38:09.345Z,10.07
2019-04-22T00:40:25.368Z,10.43
2019-04-22T00:42:53.499Z,10.60
2019-04-22T00:47:54.871Z,10.80
2019-04-22T00:50:25.381Z,10.93
2019-04-22T00:52:57.641Z,10.00
2019-04-22T00:55:40.502Z,10.93
2019-04-22T00:58:02.851Z,10.33
2019-04-22T01:00:32.109Z,10.90
2019-04-22T01:03:24.071Z,10.90
2019-04-22T01:05:37.053Z,10.80
2019-04-22T01:08:08.111Z,11.73
2019-04-22T01:10:42.180Z,11.07
2019-04-22T01:13:16.325Z,11.77
2019-04-22T01:15:43.179Z,12.60
2019-04-22T01:18:09.738Z,11.43
2019-04-22T01:23:13.779Z,11.70
2019-04-22T01:25:42.085Z,11.97
2019-04-22T01:28:10.917Z,11.87
2019-04-22T01:30:35.209Z,12.07
2019-04-22T01:33:08.030Z,12.73
2019-04-22T01:35:38.639Z,12.57
2019-04-22T01:38:22.521Z,11.93
2019-04-22T01:41:04.497Z,11.87
2019-04-22T01:43:48.123Z,12.20
2019-04-22T01:46:08.426Z,11.20
2019-04-22T01:48:44.891Z,12.00
2019-04-22T01:51:01.363Z,12.07
2019-04-22T01:53:43.280Z,12.33
2019-04-22T01:56:06.033Z,12.00
2019-04-22T01:58:33.518Z,12.93
2019-04-22T02:01:13.550Z,12.07
2019-04-22T02:03:49.025Z,13.17
2019-04-22T02:06:17.292Z,12.60
2019-04-22T02:08:52.817Z,12.70
2019-04-22T02:11:26.555Z,12.50
2019-04-22T02:13:52.355Z,14.07
2019-04-22T02:16:22.267Z,13.63
2019-04-22T02:19:07.643Z,13.37
2019-04-22T02:21:26.388Z,13.17
2019-04-22T02:23:59.557Z,13.80
2019-04-22T02:26:32.650Z,13.63
2019-04-22T02:29:03.623Z,14.03
2019-04-22T02:31:52.254Z,14.17
2019-04-22T02:34:25.856Z,13.73
2019-04-22T02:36:36.320Z,12.87
2019-04-22T02:42:00.650Z,12.80
2019-04-22T02:44:13.567Z,12.77
2019-04-22T02:51:40.340Z,13.63
2019-04-22T02:56:44.146Z,13.30
2019-04-22T03:01:47.857Z,13.23
2019-04-22T03:04:37.392Z,14.87
2019-04-22T03:07:05.504Z,13.73
2019-04-22T03:09:40.348Z,13.97
2019-04-22T03:14:29.999Z,13.50
2019-04-22T03:17:06.100Z,14.43
2019-04-22T03:19:46.809Z,14.87
2019-04-22T03:22:12.648Z,14.33
2019-04-22T03:24:37.726Z,14.47
2019-04-22T03:27:07.459Z,14.17
2019-04-22T03:35:31.700Z,14.50
2019-04-22T03:37:48.836Z,14.43
2019-04-22T03:42:41.520Z,14.70
2019-04-22T03:45:20.261Z,13.47
2019-04-22T03:47:50.942Z,14.13
2019-04-22T03:52:38.407Z,13.80
2019-04-22T03:55:15.743Z,14.20
2019-04-22T04:05:33.901Z,14.67
2019-04-22T04:07:57.698Z,14.13
2019-04-22T04:12:56.560Z,13.00
2019-04-22T04:17:54.973Z,14.23
2019-04-22T04:20:39.658Z,13.40
2019-04-22T04:23:14.205Z,13.63
2019-04-22T04:25:46.589Z,13.63
2019-04-22T04:30:33.437Z,13.00
2019-04-22T04:33:21.121Z,13.27
2019-04-22T04:35:58.701Z,12.53
2019-04-22T04:38:00.658Z,12.90
2019-04-22T04:40:41.791Z,13.57
2019-04-22T04:43:21.175Z,12.33
2019-04-22T04:48:27.693Z,13.77
2019-04-22T04:50:58.517Z,13.17
2019-04-22T04:55:55.345Z,14.00
2019-04-22T04:58:36.659Z,13.50
2019-04-22T05:01:14.879Z,13.23
2019-04-22T05:03:35.848Z,13.03
2019-04-22T05:05:59.318Z,12.57
2019-04-22T05:08:54.623Z,13.20
2019-04-22T05:11:05.924Z,13.10
2019-04-22T05:13:39.526Z,13.00
2019-04-22T05:18:37.347Z,13.10
2019-04-22T05:23:37.444Z,12.47
2019-04-22T05:26:14.445Z,13.27
2019-04-22T05:28:35.275Z,13.63
2019-04-22T05:31:18.011Z,12.57
2019-04-22T05:33:42.816Z,12.13
2019-04-22T05:36:12.715Z,12.43
2019-04-22T05:38:47.694Z,12.77
2019-04-22T05:41:19.842Z,12.53
2019-04-22T05:43:50.326Z,12.07
2019-04-22T05:46:15.717Z,11.17
2019-04-22T05:48:54.175Z,11.17
2019-04-22T05:51:29.369Z,10.13
2019-04-22T05:53:53.909Z,11.20
2019-04-22T05:56:37.491Z,10.28
2019-04-22T05:58:58.598Z,10.10
2019-04-22T06:01:38.984Z,9.70
2019-04-22T06:06:42.955Z,8.70
2019-04-22T06:09:07.467Z,8.15
2019-04-22T06:11:33.543Z,8.05
2019-04-22T06:14:05.880Z,7.75
2019-04-22T06:16:43.148Z,9.20
2019-04-22T06:19:14.058Z,8.00
2019-04-22T06:21:45.963Z,7.00
2019-04-22T06:24:17.576Z,7.65
2019-04-22T06:26:53.545Z,7.70
2019-04-22T06:32:10.296Z,6.90
2019-04-22T06:34:27.586Z,7.78
2019-04-22T06:36:53.993Z,7.47
2019-04-22T06:39:32.890Z,7.08
2019-04-22T06:41:56.602Z,7.45
2019-04-22T06:44:24.112Z,7.67
2019-04-22T06:46:56.400Z,7.03
2019-04-22T06:49:30.118Z,7.05
2019-04-22T06:52:05.729Z,7.20
2019-04-22T06:54:32.636Z,7.03
2019-04-22T06:56:59.698Z,7.00
2019-04-22T06:59:31.273Z,8.55
2019-04-22T07:02:11.078Z,8.55
2019-04-22T07:04:33.750Z,8.63
2019-04-22T07:07:06.711Z,7.83
2019-04-22T07:09:41.148Z,7.05
2019-04-22T07:12:11.658Z,8.00
2019-04-22T07:14:41.767Z,10.10
2019-04-22T07:17:15.831Z,11.08
2019-04-22T07:19:43.758Z,9.00
2019-04-22T07:22:16.670Z,7.25
2019-04-22T07:27:20.717Z,6.92
2019-04-22T07:29:57.813Z,5.87
2019-04-22T07:32:47.752Z,7.28
2019-04-22T07:34:52.285Z,6.55
2019-04-22T07:37:31.617Z,6.05
2019-04-22T07:39:54.387Z,5.90
2019-04-22T07:42:32.727Z,6.30
2019-04-22T07:47:32.456Z,6.03
2019-04-22T07:50:05.193Z,6.15
2019-04-22T07:52:33.389Z,5.30
2019-04-22T07:55:02.393Z,6.17
2019-04-22T07:57:37.867Z,5.62
2019-04-22T08:00:16.093Z,6.55
2019-04-22T08:02:44.142Z,5.78
2019-04-22T08:05:16.861Z,6.47
2019-04-22T08:07:46.818Z,5.80
2019-04-22T08:10:26.424Z,5.70
2019-04-22T08:12:47.745Z,5.70
2019-04-22T08:15:21.267Z,5.95
2019-04-22T08:17:59.848Z,6.10
2019-04-22T08:20:22.646Z,5.87
2019-04-22T08:23:00.661Z,5.72
2019-04-22T08:25:27.170Z,5.03
2019-04-22T08:27:57.036Z,5.50
2019-04-22T08:33:04.405Z,5.42
2019-04-22T08:38:10.350Z,4.53
2019-04-22T08:40:42.881Z,5.28
2019-04-22T08:43:18.703Z,5.10
2019-04-22T08:45:48.185Z,4.62
2019-04-22T08:48:11.108Z,4.25
2019-04-22T08:50:47.040Z,4.70
2019-04-22T08:53:19.822Z,4.67
2019-04-22T08:55:59.557Z,4.50
2019-04-22T09:01:00.696Z,4.35
2019-04-22T09:03:16.002Z,4.45
2019-04-22T09:06:11.276Z,4.37
2019-04-22T09:08:32.443Z,5.20
2019-04-22T09:10:57.418Z,5.55
2019-04-22T09:13:30.074Z,4.75
2019-04-22T09:15:58.828Z,4.47
2019-04-22T09:18:32.990Z,4.50
2019-04-22T09:21:07.076Z,4.20
2019-04-22T09:23:37.160Z,4.50
2019-04-22T09:26:06.665Z,4.17
2019-04-22T09:28:40.718Z,3.50
2019-04-22T09:31:06.458Z,4.65
2019-04-22T09:33:38.926Z,4.15
2019-04-22T09:36:16.800Z,4.58
2019-04-22T09:41:11.926Z,4.40
2019-04-22T09:43:47.088Z,4.37
2019-04-22T09:46:17.085Z,4.40
2019-04-22T09:48:54.657Z,4.50
2019-04-22T09:51:12.233Z,4.42
2019-04-22T09:53:54.816Z,4.47
2019-04-22T09:56:29.872Z,4.75
2019-04-22T09:58:50.081Z,4.53
2019-04-22T10:01:38.909Z,4.62
2019-04-22T10:09:13.010Z,4.40
2019-04-22T10:14:01.097Z,4.00
2019-04-22T10:19:04.256Z,4.20
2019-04-22T10:21:40.669Z,4.62
2019-04-22T10:24:12.558Z,4.10
2019-04-22T10:26:39.190Z,4.25
2019-04-22T10:29:12.236Z,4.35
2019-04-22T10:34:02.655Z,4.37
2019-04-22T10:36:17.392Z,4.45
2019-04-22T10:38:48.719Z,4.17
2019-04-22T10:41:18.660Z,4.22
2019-04-22T10:43:49.243Z,4.08
2019-04-22T10:46:19.933Z,4.37
2019-04-22T10:48:52.646Z,3.95
2019-04-22T10:51:22.537Z,4.10
2019-04-22T10:53:53.432Z,3.60
2019-04-22T10:56:23.281Z,4.10
2019-04-22T10:58:53.721Z,3.47
2019-04-22T11:01:23.668Z,3.85
2019-04-22T11:03:53.410Z,3.95
2019-04-22T11:06:23.341Z,4.22
2019-04-22T11:08:58.366Z,4.08
2019-04-22T11:11:34.851Z,4.40
2019-04-22T11:13:58.073Z,4.00
2019-04-22T11:16:27.962Z,3.77
2019-04-22T11:18:57.712Z,3.95
2019-04-22T11:21:27.494Z,4.17
2019-04-22T11:23:58.598Z,4.12
2019-04-22T11:26:28.445Z,4.35
2019-04-22T11:28:59.403Z,4.20
2019-04-22T11:31:30.371Z,4.03
2019-04-22T11:34:00.798Z,3.62
2019-04-22T11:36:30.920Z,3.52
2019-04-22T11:39:04.128Z,3.58
2019-04-22T11:41:34.074Z,3.98
2019-04-22T11:44:05.399Z,4.17
2019-04-22T11:46:35.611Z,4.22
2019-04-22T11:49:05.904Z,3.83
2019-04-22T11:51:36.121Z,4.05
2019-04-22T11:54:07.052Z,3.52
2019-04-22T11:56:37.273Z,3.92
2019-04-22T11:59:08.740Z,3.75
2019-04-22T12:01:39.888Z,3.70
2019-04-22T12:04:09.740Z,4.28
2019-04-22T12:06:40.115Z,4.08
2019-04-22T12:09:12.462Z,3.72
2019-04-22T12:11:42.222Z,4.03
2019-04-22T12:14:11.901Z,4.15
2019-04-22T12:16:41.615Z,3.65
2019-04-22T12:19:11.438Z,3.70
2019-04-22T12:21:41.386Z,3.55
2019-04-22T12:24:13.230Z,3.50
2019-04-22T12:26:44.206Z,4.30
2019-04-22T12:29:15.331Z,3.62
2019-04-22T12:31:45.351Z,3.62
2019-04-22T12:34:15.614Z,3.58
2019-04-22T12:36:46.684Z,3.60
2019-04-22T12:39:17.883Z,3.60
2019-04-22T12:41:47.697Z,3.80
2019-04-22T12:44:18.037Z,3.37
2019-04-22T12:46:50.197Z,3.65
2019-04-22T12:49:20.375Z,4.10
2019-04-22T12:51:51.353Z,3.62
2019-04-22T12:54:21.566Z,3.52
2019-04-22T12:56:51.480Z,3.37
2019-04-22T12:59:21.567Z,3.80
2019-04-22T13:01:51.355Z,3.77
2019-04-22T13:04:23.256Z,3.42
2019-04-22T13:06:53.617Z,3.67
2019-04-22T13:09:23.427Z,3.75
2019-04-22T13:11:53.181Z,4.10
2019-04-22T13:14:23.226Z,3.62
2019-04-22T13:16:53.568Z,3.20
2019-04-22T13:19:26.458Z,3.30
2019-04-22T13:21:56.592Z,3.20
2019-04-22T13:24:27.880Z,3.22
2019-04-22T13:26:59.011Z,3.00
2019-04-22T13:29:28.858Z,2.83
2019-04-22T13:31:58.683Z,3.67
2019-04-22T13:34:37.402Z,3.27
2019-04-22T13:37:01.138Z,3.52
2019-04-22T13:39:31.287Z,3.15
2019-04-22T13:42:04.626Z,3.47
2019-04-22T13:44:33.583Z,3.30
2019-04-22T13:47:26.411Z,3.10
2019-04-22T13:50:08.108Z,3.20
2019-04-22T13:54:59.890Z,3.62
2019-04-22T13:57:26.158Z,3.40
2019-04-22T13:59:48.069Z,3.12
2019-04-22T14:02:35.084Z,3.30
2019-04-22T14:05:06.529Z,3.70
2019-04-22T14:07:37.039Z,3.45
2019-04-22T14:10:08.560Z,3.42
2019-04-22T14:12:39.129Z,3.50
2019-04-22T14:15:09.894Z,4.03
2019-04-22T14:17:40.958Z,3.87
2019-04-22T14:20:13.058Z,3.67
2019-04-22T14:22:44.469Z,3.87
2019-04-22T14:25:14.674Z,4.42
2019-04-22T14:27:52.449Z,3.98
2019-04-22T14:30:20.783Z,3.62
2019-04-22T14:32:51.282Z,3.60
2019-04-22T14:35:21.083Z,3.17
2019-04-22T14:37:52.213Z,4.33
2019-04-22T14:40:23.044Z,3.37
2019-04-22T14:43:17.479Z,3.33
2019-04-22T14:45:58.425Z,3.17
2019-04-22T14:48:22.301Z,3.02
2019-04-22T14:50:51.890Z,3.10
2019-04-22T14:53:20.726Z,2.83
2019-04-22T14:55:36.090Z,3.10
2019-04-22T14:58:04.817Z,2.98
2019-04-22T15:00:35.807Z,2.80
2019-04-22T15:03:05.939Z,3.10
2019-04-22T15:05:37.452Z,3.30
2019-04-22T15:08:09.049Z,3.33
2019-04-22T15:10:42.035Z,2.70
2019-04-22T15:13:13.333Z,2.72
2019-04-22T15:16:07.786Z,3.77
2019-04-22T15:18:44.069Z,3.22
2019-04-22T15:21:18.672Z,3.20
2019-04-22T15:23:48.695Z,3.52
2019-04-22T15:26:20.228Z,3.20
2019-04-22T15:28:51.396Z,2.72
2019-04-22T15:31:21.802Z,3.00
2019-04-22T15:33:52.303Z,3.00
2019-04-22T15:36:23.808Z,3.45
2019-04-22T15:38:57.578Z,3.33
2019-04-22T15:41:28.579Z,3.27
2019-04-22T15:44:01.862Z,3.20
2019-04-22T15:46:32.126Z,3.00
2019-04-22T15:49:02.181Z,3.25
2019-04-22T15:51:32.129Z,3.22
2019-04-22T15:54:03.459Z,3.47
2019-04-22T15:56:34.898Z,3.20
2019-04-22T15:59:17.278Z,3.30
2019-04-22T16:01:40.574Z,3.15
2019-04-22T16:04:08.414Z,3.33
2019-04-22T16:06:38.866Z,3.62
2019-04-22T16:09:11.035Z,3.62
2019-04-22T16:11:42.811Z,3.27
2019-04-22T16:14:15.163Z,3.55
2019-04-22T16:16:43.969Z,3.00
2019-04-22T16:19:14.111Z,2.85
2019-04-22T16:21:51.779Z,2.92
2019-04-22T16:24:34.051Z,3.00
2019-04-22T16:27:08.788Z,2.67
2019-04-22T16:29:39.246Z,2.87
2019-04-22T16:32:09.681Z,2.98
2019-04-22T16:34:40.259Z,3.20
2019-04-22T16:37:12.580Z,2.60
2019-04-22T16:39:45.439Z,2.90
2019-04-22T16:42:29.210Z,2.70
2019-04-22T16:44:47.607Z,2.70
2019-04-22T16:47:17.548Z,2.80
2019-04-22T16:49:47.880Z,2.80
2019-04-22T16:52:18.295Z,2.67
2019-04-22T16:54:48.098Z,2.83
2019-04-22T16:57:19.838Z,2.90
2019-04-22T16:59:50.742Z,3.12
2019-04-22T17:02:48.440Z,3.02
2019-04-22T17:05:47.224Z,2.70
2019-04-22T17:08:18.490Z,2.85
2019-04-22T17:10:49.505Z,2.72
2019-04-22T17:13:24.535Z,2.70
2019-04-22T17:15:51.412Z,2.50
2019-04-22T17:18:21.557Z,2.60
2019-04-22T17:20:52.814Z,2.52
2019-04-22T17:23:23.765Z,2.50
2019-04-22T17:25:54.429Z,2.55
2019-04-22T17:28:25.721Z,2.30
2019-04-22T17:30:57.537Z,2.70
2019-04-22T17:33:28.837Z,2.20
2019-04-22T17:35:59.150Z,2.47
2019-04-22T17:38:42.086Z,2.47
2019-04-22T17:41:14.579Z,2.47
2019-04-22T17:43:56.007Z,2.45
2019-04-22T17:46:35.931Z,2.25
2019-04-22T17:49:17.024Z,2.50
2019-04-22T17:52:04.683Z,2.02
2019-04-22T17:54:40.758Z,2.20
2019-04-22T17:57:05.204Z,2.22
2019-04-22T17:59:38.105Z,2.60
2019-04-22T18:02:08.633Z,2.40
2019-04-22T18:04:23.369Z,2.35
2019-04-22T18:07:20.330Z,2.45
2019-04-22T18:10:16.207Z,2.10
2019-04-22T18:12:27.625Z,2.00
2019-04-22T18:14:52.834Z,2.17
2019-04-22T18:17:26.749Z,2.80
2019-04-22T18:19:51.835Z,2.20
2019-04-22T18:22:20.014Z,2.02
2019-04-22T18:24:50.441Z,2.65
2019-04-22T18:27:38.890Z,2.12
2019-04-22T18:29:55.561Z,2.08
2019-04-22T18:32:21.783Z,2.20
2019-04-22T18:34:52.953Z,1.92
2019-04-22T18:37:25.163Z,2.20
2019-04-22T18:40:02.118Z,2.00
2019-04-22T18:42:31.632Z,2.37
2019-04-22T18:45:24.640Z,2.22
2019-04-22T18:47:39.073Z,2.00
2019-04-22T18:50:08.595Z,2.08
2019-04-22T18:53:03.267Z,2.50
2019-04-22T18:55:33.893Z,1.98
2019-04-22T18:58:11.987Z,2.27
2019-04-22T19:00:27.437Z,2.27
2019-04-22T19:03:05.328Z,2.25
2019-04-22T19:05:45.541Z,2.50
2019-04-22T19:08:26.018Z,1.87
2019-04-22T19:13:50.077Z,2.45
2019-04-22T19:16:13.184Z,2.40
2019-04-22T19:21:01.270Z,2.20
2019-04-22T19:23:31.851Z,2.25
2019-04-22T19:26:07.112Z,2.47
2019-04-22T19:28:42.350Z,2.33
2019-04-22T19:31:17.272Z,2.98
2019-04-22T19:33:40.593Z,2.75
2019-04-22T19:36:14.962Z,2.70
2019-04-22T19:38:31.154Z,2.25
2019-04-22T19:41:20.663Z,2.17
2019-04-22T19:43:47.257Z,2.60
2019-04-22T19:46:16.778Z,2.35
2019-04-22T19:48:50.253Z,2.22
2019-04-22T19:51:24.331Z,2.20
2019-04-22T19:53:54.306Z,2.12
2019-04-22T19:56:19.089Z,2.20
2019-04-22T19:58:53.155Z,2.50
2019-04-22T20:01:58.673Z,2.55
2019-04-22T20:07:08.399Z,2.05
2019-04-22T20:09:47.833Z,2.60
2019-04-22T20:12:19.092Z,2.30
2019-04-22T20:14:46.311Z,2.50
2019-04-22T20:17:19.741Z,2.40
2019-04-22T20:19:57.781Z,2.50
2019-04-22T20:22:21.651Z,2.25
2019-04-22T20:24:43.512Z,2.60
2019-04-22T20:27:23.869Z,2.87
2019-04-22T20:29:58.236Z,2.17
2019-04-22T20:32:26.292Z,2.30
2019-04-22T20:35:06.027Z,2.05
2019-04-22T20:37:37.080Z,2.08
2019-04-22T20:40:01.920Z,2.50
2019-04-22T20:45:09.894Z,2.20
2019-04-22T20:47:34.027Z,2.10
2019-04-22T20:50:15.699Z,2.10
2019-04-22T20:55:07.690Z,2.20
2019-04-22T20:57:48.464Z,2.22
2019-04-22T21:00:13.796Z,2.17
2019-04-22T21:02:40.213Z,2.00
2019-04-22T21:05:14.350Z,2.22
2019-04-22T21:07:48.046Z,2.30
2019-04-22T21:10:19.978Z,2.00
2019-04-22T21:12:40.854Z,2.02
2019-04-22T21:15:31.532Z,2.30
2019-04-22T21:17:55.296Z,2.33
2019-04-22T21:20:34.830Z,2.30
2019-04-22T21:23:00.129Z,2.00
2019-04-22T21:25:23.992Z,2.20
2019-04-22T21:28:04.600Z,2.20
2019-04-22T21:30:32.377Z,2.22
2019-04-22T21:33:04.086Z,2.02
2019-04-22T21:35:53.942Z,2.27
2019-04-22T21:38:19.619Z,2.10
2019-04-22T21:40:39.791Z,2.55
2019-04-22T21:43:13.414Z,2.00
2019-04-22T21:45:37.623Z,2.10
2019-04-22T21:48:26.463Z,2.10
2019-04-22T21:50:58.200Z,2.00
2019-04-22T21:53:25.192Z,2.00
2019-04-22T21:56:03.950Z,2.00
2019-04-22T21:58:34.541Z,2.30
2019-04-22T22:01:18.987Z,2.10
2019-04-22T22:03:54.908Z,1.95
2019-04-22T22:06:16.660Z,2.10
2019-04-22T22:08:59.795Z,1.90
2019-04-22T22:11:23.547Z,2.00
2019-04-22T22:13:55.178Z,2.00
2019-04-22T22:16:24.928Z,2.00
2019-04-22T22:19:00.831Z,2.20
2019-04-22T22:21:40.673Z,1.75
2019-04-22T22:24:09.054Z,1.80
2019-04-22T22:26:39.929Z,1.85
2019-04-22T22:29:11.881Z,2.30
2019-04-22T22:31:44.763Z,1.82
2019-04-22T22:34:13.760Z,2.22
2019-04-22T22:36:36.370Z,2.10
2019-04-22T22:39:13.248Z,1.95
2019-04-22T22:41:24.428Z,2.15
2019-04-22T22:44:03.422Z,1.90
2019-04-22T22:46:39.240Z,2.05
2019-04-22T22:49:22.891Z,1.92
2019-04-22T22:51:53.113Z,1.98
2019-04-22T22:54:23.641Z,1.80
2019-04-22T22:57:08.748Z,1.82
2019-04-22T22:59:29.258Z,1.60
2019-04-22T23:01:54.565Z,1.80
2019-04-22T23:04:37.642Z,1.90
2019-04-22T23:07:00.392Z,2.10
2019-04-22T23:09:30.608Z,1.83
2019-04-22T23:12:15.942Z,2.30
2019-04-22T23:14:39.236Z,2.10
2019-04-22T23:16:52.895Z,2.20
2019-04-22T23:19:17.908Z,1.90
2019-04-22T23:21:52.619Z,1.77
2019-04-22T23:25:01.694Z,1.70
2019-04-22T23:27:44.453Z,1.70
2019-04-22T23:30:19.454Z,2.27
2019-04-22T23:32:57.984Z,1.70
2019-04-22T23:35:36.431Z,1.90
2019-04-22T23:38:07.382Z,2.00
2019-04-22T23:40:42.870Z,2.20
2019-04-22T23:43:24.186Z,1.90
2019-04-22T23:45:51.730Z,2.10
2019-04-22T23:48:14.175Z,1.70
2019-04-22T23:50:51.005Z,1.60
2019-04-22T23:53:55.867Z,2.00
2019-04-22T23:56:05.650Z,1.98
2019-04-22T23:58:52.692Z,1.75
